Time;durP1;ratioP1;P1;durP2;ratioP2;P2;SDS_P1;SDS_P2;PMS_P1;PMS_P2;Temp;Humidity;BMP_temperature;BMP_pressure;BME280_temperature;BME280_humidity;BME280_pressure;Samples;Min_cycle;Max_cycle;Signal;HPM_P1;HPM_P2
2023/10/11 00:03:05;;;;;;;30.10;13.97;;;9.20;99.90;8.40;100175;;;;569132;249;24144;-78
2023/10/11 00:05:39;;;;;;;23.30;13.70;;;9.20;99.90;8.50;100167;;;;569316;249;24120;-82
2023/10/11 00:08:03;;;;;;;24.63;13.93;;;9.20;99.90;8.50;100162;;;;569105;249;24092;-81
2023/10/11 00:10:29;;;;;;;30.77;14.07;;;9.20;99.90;8.50;100167;;;;568705;249;24220;-79
2023/10/11 00:12:58;;;;;;;27.70;15.03;;;9.30;99.90;8.60;100165;;;;568997;249;24153;-80
2023/10/11 00:15:29;;;;;;;25.87;15.00;;;9.30;99.90;8.60;100163;;;;568945;247;24107;-80
2023/10/11 00:17:55;;;;;;;30.03;15.63;;;9.30;99.90;8.60;100157;;;;567511;249;24152;-81
2023/10/11 00:20:58;;;;;;;26.90;14.50;;;9.40;99.90;8.60;100150;;;;568741;249;24180;-81
2023/10/11 00:23:00;;;;;;;28.03;14.53;;;9.40;99.90;8.70;100143;;;;566881;249;24101;-80
2023/10/11 00:25:25;;;;;;;30.43;14.93;;;9.40;99.90;8.70;100143;;;;576797;248;24537;-80
2023/10/11 00:27:55;;;;;;;27.23;14.60;;;9.50;99.90;8.80;100145;;;;568893;249;24089;-80
2023/10/11 00:30:21;;;;;;;36.87;15.47;;;9.50;99.90;8.80;100138;;;;568659;249;24164;-81
2023/10/11 00:32:49;;;;;;;31.90;15.27;;;9.60;99.90;8.80;100135;;;;570427;248;24132;-80
2023/10/11 00:35:24;;;;;;;31.40;15.73;;;9.60;99.90;8.80;100128;;;;569718;249;24118;-80
2023/10/11 00:37:51;;;;;;;39.65;23.95;;;9.60;99.90;8.80;100122;;;;564731;249;46329;-79
2023/10/11 00:40:25;;;;;;;39.87;20.63;;;9.60;99.90;8.80;100130;;;;547956;258;24151;-80
2023/10/11 00:42:45;;;;;;;35.50;17.77;;;9.60;99.90;8.90;100131;;;;569128;249;24107;-80
2023/10/11 00:45:16;;;;;;;34.17;17.57;;;9.60;99.90;8.90;100121;;;;569137;249;24111;-79
2023/10/11 00:47:45;;;;;;;25.77;15.20;;;9.60;99.90;8.90;100118;;;;568961;249;24099;-80
2023/10/11 00:50:14;;;;;;;33.50;17.13;;;9.70;99.90;9.00;100123;;;;568883;249;24142;-79
2023/10/11 00:52:37;;;;;;;36.10;16.17;;;9.70;99.90;8.90;100120;;;;577000;247;24092;-80
2023/10/11 00:55:09;;;;;;;28.97;15.60;;;9.70;99.90;9.00;100121;;;;567825;249;24098;-79
2023/10/11 00:57:37;;;;;;;34.07;15.70;;;9.80;99.90;9.00;100108;;;;568686;249;25137;-80
2023/10/11 01:00:05;;;;;;;33.53;14.87;;;9.70;99.90;9.10;100115;;;;567966;249;24105;-80
2023/10/11 01:02:32;;;;;;;32.47;16.17;;;9.80;99.90;9.10;100111;;;;568223;249;24100;-80
2023/10/11 01:05:01;;;;;;;33.60;17.07;;;9.80;99.90;9.10;100116;;;;569108;249;24118;-80
2023/10/11 01:07:26;;;;;;;31.83;16.03;;;9.90;99.90;9.20;100106;;;;577872;243;24078;-80
2023/10/11 01:09:56;;;;;;;34.93;15.77;;;9.90;99.90;9.20;100111;;;;568782;249;24092;-79
2023/10/11 01:12:22;;;;;;;32.23;15.53;;;10.00;99.90;9.20;100107;;;;569020;249;24118;-80
2023/10/11 01:14:57;;;;;;;34.87;17.13;;;10.00;99.90;9.30;100099;;;;569062;249;24144;-80
2023/10/11 01:17:31;;;;;;;31.77;17.40;;;10.00;99.90;9.30;100097;;;;568787;249;24106;-79
2023/10/11 01:19:55;;;;;;;30.20;16.00;;;10.10;99.90;9.30;100086;;;;568546;249;24124;-79
2023/10/11 01:22:23;;;;;;;33.97;18.17;;;10.10;99.90;9.40;100079;;;;568587;249;24241;-79
2023/10/11 01:24:52;;;;;;;31.10;16.33;;;10.10;99.90;9.40;100067;;;;568876;249;24088;-79
2023/10/11 01:27:21;;;;;;;34.37;16.60;;;10.10;99.90;9.40;100070;;;;568525;249;24116;-79
2023/10/11 01:29:47;;;;;;;42.10;19.47;;;10.20;99.90;9.50;100061;;;;568717;249;24088;-79
2023/10/11 01:32:15;;;;;;;45.47;19.37;;;10.20;99.90;9.50;100062;;;;568898;249;25517;-81
2023/10/11 01:34:44;;;;;;;36.00;18.33;;;10.20;99.90;9.50;100052;;;;568827;249;24113;-80
2023/10/11 01:37:11;;;;;;;36.33;17.30;;;10.20;99.90;9.50;100054;;;;569226;249;24125;-79
2023/10/11 01:39:39;;;;;;;35.37;16.50;;;10.30;99.90;9.60;100051;;;;569128;249;24105;-79
2023/10/11 01:42:07;;;;;;;35.37;16.97;;;10.30;99.90;9.60;100052;;;;568996;247;24111;-80
2023/10/11 01:44:36;;;;;;;34.57;16.60;;;10.30;99.90;9.60;100058;;;;570351;249;24098;-80
2023/10/11 01:47:03;;;;;;;39.77;19.10;;;10.40;99.90;9.70;100067;;;;569494;249;24135;-80
2023/10/11 01:49:37;;;;;;;36.20;17.30;;;10.40;99.90;9.70;100067;;;;569441;249;24104;-81
2023/10/11 01:51:59;;;;;;;37.47;18.03;;;10.50;99.90;9.80;100052;;;;568992;249;24105;-80
2023/10/11 01:54:26;;;;;;;35.13;17.10;;;10.50;99.90;9.80;100046;;;;569119;247;24082;-81
2023/10/11 01:56:56;;;;;;;34.33;17.57;;;10.50;99.90;9.90;100048;;;;569533;249;24090;-81
2023/10/11 01:59:22;;;;;;;52.97;26.67;;;10.60;99.90;9.90;100039;;;;564534;249;35293;-80
2023/10/11 02:01:59;;;;;;;57.87;30.87;;;10.60;99.90;9.90;100033;;;;564043;249;46226;-81
2023/10/11 02:04:20;;;;;;;42.60;22.93;;;10.70;99.90;10.00;100025;;;;568432;249;24080;-80
2023/10/11 02:06:50;;;;;;;38.97;18.53;;;10.70;99.90;10.00;100017;;;;569395;249;24081;-80
2023/10/11 02:09:21;;;;;;;38.27;18.57;;;10.70;99.90;10.00;100016;;;;570909;249;24094;-81
2023/10/11 02:11:55;;;;;;;42.23;19.23;;;10.70;99.90;10.00;100009;;;;578238;247;24084;-79
2023/10/11 02:14:27;;;;;;;36.87;18.13;;;10.80;99.90;10.10;100011;;;;568816;249;24103;-81
2023/10/11 02:16:55;;;;;;;40.20;17.67;;;10.80;99.90;10.10;99996;;;;568834;249;24158;-81
2023/10/11 02:19:24;;;;;;;30.00;16.77;;;10.80;99.90;10.10;99998;;;;570519;249;24077;-80
2023/10/11 02:21:53;;;;;;;33.70;17.97;;;10.90;99.90;10.20;99995;;;;568970;249;24135;-81
2023/10/11 02:24:19;;;;;;;30.53;15.50;;;10.90;99.90;10.20;100005;;;;568764;249;24143;-79
2023/10/11 02:26:49;;;;;;;34.50;16.67;;;10.90;99.90;10.30;99994;;;;568969;249;24208;-80
2023/10/11 02:29:21;;;;;;;30.20;15.63;;;11.00;99.90;10.30;99986;;;;569130;249;24151;-80
2023/10/11 02:31:49;;;;;;;36.20;15.47;;;11.00;99.90;10.40;99979;;;;568596;249;24165;-81
2023/10/11 02:34:13;;;;;;;34.10;15.30;;;11.10;99.90;10.40;99981;;;;568852;249;24088;-81
2023/10/11 02:36:44;;;;;;;31.20;16.90;;;11.10;99.90;10.50;99975;;;;569178;249;24109;-81
2023/10/11 02:39:20;;;;;;;27.63;13.80;;;11.20;99.90;10.50;99971;;;;569045;249;24104;-79
2023/10/11 02:41:50;;;;;;;34.33;15.77;;;11.30;99.90;10.60;99969;;;;569106;249;24091;-80
2023/10/11 02:44:16;;;;;;;28.23;15.20;;;11.30;99.90;10.60;99966;;;;568796;249;24122;-80
2023/10/11 02:46:44;;;;;;;29.93;14.40;;;11.30;99.90;10.70;99969;;;;568798;249;24106;-80
2023/10/11 02:49:20;;;;;;;29.07;14.77;;;11.30;99.90;10.70;99971;;;;577389;247;24121;-80
2023/10/11 02:51:56;;;;;;;31.50;15.17;;;11.40;99.90;10.70;99966;;;;568687;249;24089;-80
2023/10/11 02:54:34;;;;;;;30.10;15.53;;;11.40;99.90;10.70;99956;;;;569361;248;24230;-80
2023/10/11 02:56:52;;;;;;;23.70;13.10;;;11.40;99.90;10.70;99951;;;;569308;249;24092;-82
2023/10/11 03:02:03;;;;;;;28.40;15.37;;;11.50;99.90;10.80;99942;;;;596108;241;24069;-79
2023/10/11 03:04:29;;;;;;;25.50;14.93;;;11.50;99.90;10.80;99943;;;;573765;245;24122;-79
2023/10/11 03:06:56;;;;;;;27.57;15.20;;;11.50;99.90;10.90;99934;;;;576035;246;24071;-79
2023/10/11 03:09:27;;;;;;;28.60;13.70;;;11.60;99.90;10.90;99931;;;;590364;238;24039;-79
2023/10/11 03:11:55;;;;;;;25.70;14.13;;;11.60;99.90;10.90;99938;;;;578302;243;24028;-80
2023/10/11 03:14:21;;;;;;;34.87;14.67;;;11.60;99.90;10.90;99935;;;;567713;249;24115;-79
2023/10/11 03:16:56;;;;;;;30.37;15.73;;;11.60;99.90;11.00;99925;;;;572275;247;24087;-80
2023/10/11 03:19:17;;;;;;;28.87;15.93;;;11.60;99.90;11.00;99921;;;;591764;238;24036;-79
2023/10/11 03:21:45;;;;;;;25.13;13.83;;;11.60;99.90;11.00;99922;;;;594534;238;24069;-80
2023/10/11 03:24:14;;;;;;;26.07;14.20;;;11.70;99.90;11.10;99915;;;;594509;237;24079;-80
2023/10/11 03:26:43;;;;;;;25.77;14.43;;;11.70;99.90;11.10;99904;;;;594592;237;24018;-80
2023/10/11 03:29:17;;;;;;;23.57;12.97;;;11.80;99.90;11.10;99906;;;;566264;248;24057;-79
2023/10/11 03:31:40;;;;;;;22.70;12.90;;;11.80;99.90;11.10;99895;;;;603247;237;23989;-80
2023/10/11 03:34:20;;;;;;;22.47;13.07;;;11.80;99.90;11.20;99888;;;;589285;239;24023;-80
2023/10/11 03:36:56;;;;;;;19.93;12.30;;;11.80;99.90;11.20;99881;;;;567950;246;24149;-80
2023/10/11 03:44:35;;;;;;;26.70;14.87;;;11.90;99.90;11.30;99869;;;;576884;247;24115;-79
2023/10/11 03:47:05;;;;;;;23.57;13.57;;;12.00;99.90;11.30;99860;;;;567314;249;24068;-78
2023/10/11 03:51:56;;;;;;;25.80;15.57;;;12.00;99.90;11.40;99868;;;;580741;245;24075;-80
2023/10/11 03:54:24;;;;;;;26.80;14.93;;;12.00;99.90;11.40;99873;;;;591714;239;24079;-80
2023/10/11 03:56:55;;;;;;;25.70;14.43;;;12.10;99.90;11.40;99860;;;;594161;239;23995;-82
2023/10/11 03:59:26;;;;;;;24.73;13.83;;;12.10;99.90;11.40;99845;;;;593976;239;24014;-81
2023/10/11 04:01:53;;;;;;;28.27;14.80;;;12.10;99.90;11.50;99848;;;;603556;237;24054;-79
2023/10/11 04:04:21;;;;;;;25.40;15.43;;;12.10;99.90;11.50;99840;;;;586779;243;24024;-79
2023/10/11 04:06:57;;;;;;;24.73;14.13;;;12.10;99.90;11.50;99834;;;;571208;247;24054;-80
2023/10/11 04:09:32;;;;;;;27.20;15.60;;;12.10;99.90;11.50;99824;;;;570272;247;24125;-80
2023/10/11 04:11:55;;;;;;;27.33;14.33;;;12.10;99.90;11.50;99824;;;;592428;238;24003;-80
2023/10/11 04:14:23;;;;;;;32.83;15.80;;;12.20;99.90;11.50;99821;;;;594746;236;24024;-80
2023/10/11 04:16:47;;;;;;;28.97;14.83;;;12.20;99.90;11.50;99808;;;;595188;237;23992;-80
2023/10/11 04:19:15;;;;;;;25.00;14.23;;;12.20;99.90;11.60;99808;;;;604118;238;24072;-80
2023/10/11 04:24:19;;;;;;;27.03;14.43;;;12.20;99.90;11.60;99813;;;;592150;238;24087;-80
2023/10/11 04:26:53;;;;;;;27.63;14.93;;;12.30;99.90;11.70;99806;;;;575740;248;24063;-80
2023/10/11 04:29:17;;;;;;;24.80;14.63;;;12.30;99.90;11.70;99797;;;;570982;247;24068;-80
2023/10/11 04:32:40;;;;;;;29.43;15.80;;;12.30;99.90;11.70;99788;;;;569260;247;24116;-79
2023/10/11 04:34:14;;;;;;;30.17;16.00;;;12.30;99.90;11.70;99790;;;;578932;247;24076;-81
2023/10/11 04:36:43;;;;;;;24.00;14.80;;;12.40;99.90;11.70;99780;;;;591852;238;23999;-79
2023/10/11 04:39:27;;;;;;;26.03;16.43;;;12.40;99.90;11.70;99773;;;;594850;238;23996;-80
2023/10/11 04:41:52;;;;;;;32.03;16.10;;;12.40;99.90;11.70;99773;;;;595577;237;24084;-79
2023/10/11 04:44:19;;;;;;;26.67;16.53;;;12.40;99.90;11.80;99774;;;;566382;248;24101;-79
2023/10/11 04:46:57;;;;;;;30.50;17.27;;;12.40;99.90;11.70;99774;;;;587250;242;24021;-80
2023/10/11 04:49:23;;;;;;;28.23;15.77;;;12.40;99.90;11.80;99770;;;;571326;247;24061;-78
2023/10/11 04:51:48;;;;;;;25.77;15.10;;;12.40;99.90;11.70;99757;;;;586983;244;24046;-80
2023/10/11 04:54:18;;;;;;;30.47;16.77;;;12.40;99.90;11.80;99760;;;;594171;239;24017;-80
2023/10/11 04:59:17;;;;;;;30.43;16.30;;;12.50;99.90;11.80;99747;;;;577743;244;24024;-80
2023/10/11 05:04:15;;;;;;;25.67;15.63;;;12.40;99.90;11.80;99741;;;;580604;246;24053;-80
2023/10/11 05:06:43;;;;;;;27.43;16.40;;;12.50;99.90;11.90;99745;;;;594580;239;24031;-80
2023/10/11 05:09:21;;;;;;;28.63;16.80;;;12.50;99.90;11.90;99751;;;;594059;239;24052;-79
2023/10/11 05:11:58;;;;;;;29.63;17.27;;;12.50;99.90;11.90;99739;;;;595023;237;24004;-80
2023/10/11 05:27:56;;;;;;;31.70;18.83;;;12.70;99.90;12.10;99714;;;;592494;238;24002;-79
2023/10/11 05:33:15;;;;;;;29.33;19.23;;;12.80;99.90;12.20;99705;;;;572500;247;24064;-79
2023/10/11 05:51:39;;;;;;;31.03;19.20;;;13.00;99.90;12.40;99710;;;;569739;247;24054;-81
2023/10/11 05:54:03;;;;;;;31.20;19.30;;;13.10;99.90;12.40;99701;;;;569053;248;24136;-81
2023/10/11 05:56:38;;;;;;;32.80;19.10;;;13.10;99.90;12.40;99702;;;;567384;249;24127;-81
2023/10/11 05:59:03;;;;;;;28.70;18.30;;;13.10;99.90;12.50;99702;;;;569950;248;24092;-81
2023/10/11 06:01:27;;;;;;;30.70;19.37;;;13.10;99.90;12.50;99694;;;;568930;248;24133;-81
2023/10/11 06:03:59;;;;;;;27.87;18.80;;;13.10;99.90;12.50;99682;;;;591787;239;23994;-80
2023/10/11 06:06:26;;;;;;;31.73;20.07;;;13.10;99.90;12.60;99689;;;;599395;239;24025;-80
2023/10/11 06:08:51;;;;;;;30.33;20.47;;;13.20;99.90;12.60;99689;;;;575403;249;24130;-80
2023/10/11 06:11:19;;;;;;;33.90;20.60;;;13.30;99.90;12.70;99693;;;;580942;246;24086;-79
2023/10/11 06:13:50;;;;;;;33.30;21.03;;;13.30;99.90;12.80;99696;;;;580937;247;24079;-80
2023/10/11 06:16:15;;;;;;;30.33;19.50;;;13.40;99.90;12.80;99693;;;;578151;244;24031;-82
2023/10/11 06:18:43;;;;;;;32.97;19.87;;;13.50;99.90;12.90;99707;;;;570755;248;24099;-80
2023/10/11 06:23:41;;;;;;;35.60;20.53;;;13.70;99.90;13.10;99695;;;;570185;249;24045;-80
2023/10/11 06:29:04;;;;;;;37.00;19.83;;;13.80;99.90;13.20;99690;;;;569489;247;24059;-78
2023/10/11 06:31:39;;;;;;;34.20;20.40;;;13.90;99.90;13.30;99695;;;;575073;244;24039;-79
2023/10/11 06:34:15;;;;;;;29.30;19.70;;;14.00;99.90;13.40;99690;;;;581188;247;24075;-79
2023/10/11 06:36:30;;;;;;;32.57;20.57;;;14.10;99.90;13.50;99693;;;;603651;237;24055;-79
2023/10/11 06:38:58;;;;;;;33.30;20.03;;;14.20;99.90;13.60;99694;;;;594897;238;24046;-78
2023/10/11 06:41:45;;;;;;;37.80;20.17;;;14.30;99.90;13.70;99683;;;;566854;248;24037;-79
2023/10/11 06:44:04;;;;;;;30.70;19.93;;;14.40;99.90;13.80;99681;;;;587170;242;24084;-80
2023/10/11 06:46:31;;;;;;;26.93;17.97;;;14.60;99.90;13.90;99679;;;;571027;244;24084;-79
2023/10/11 06:49:00;;;;;;;29.57;17.27;;;14.70;99.90;14.10;99683;;;;569760;248;23088;-80
2023/10/11 06:51:29;;;;;;;32.60;19.23;;;14.80;99.90;14.20;99684;;;;569712;248;24088;-81
2023/10/11 06:53:57;;;;;;;31.20;17.50;;;15.00;99.90;14.30;99680;;;;592425;238;24075;-81
2023/10/11 06:56:27;;;;;;;30.53;17.17;;;14.90;99.90;14.50;99677;;;;603804;237;23996;-81
2023/10/11 06:58:53;;;;;;;27.70;16.43;;;15.10;99.90;14.60;99669;;;;566584;245;24137;-79
2023/10/11 07:01:21;;;;;;;25.73;16.50;;;15.20;99.90;14.60;99673;;;;603975;237;23992;-81
2023/10/11 07:03:52;;;;;;;25.00;17.83;;;15.30;99.90;14.70;99674;;;;594424;238;24062;-81
2023/10/11 07:06:22;;;;;;;20.90;15.77;;;15.40;99.90;14.80;99645;;;;577945;243;24118;-81
2023/10/11 07:08:52;;;;;;;19.23;15.23;;;15.40;99.90;14.80;99645;;;;573450;244;24101;-81
2023/10/11 07:11:41;;;;;;;18.50;13.67;;;15.50;99.90;14.80;99634;;;;571181;246;24169;-80
2023/10/11 07:13:57;;;;;;;18.70;12.93;;;15.50;99.90;14.90;99632;;;;568283;248;24099;-80
2023/10/11 07:16:31;;;;;;;18.27;13.30;;;15.60;99.90;14.90;99630;;;;569267;248;24066;-80
2023/10/11 07:18:58;;;;;;;19.60;14.53;;;15.60;99.90;15.00;99618;;;;573863;244;24049;-80
2023/10/11 07:24:38;;;;;;;20.30;14.67;;;15.70;99.90;15.10;99615;;;;578751;246;24074;-81
2023/10/11 07:27:26;;;;;;;17.40;13.57;;;15.80;99.90;15.20;99609;;;;568860;248;24083;-82
2023/10/11 07:29:39;;;;;;;17.77;13.50;;;15.90;99.90;15.40;99609;;;;568307;247;24197;-82
2023/10/11 07:32:09;;;;;;;18.57;12.37;;;16.10;99.90;15.50;99606;;;;571652;247;24055;-82
2023/10/11 07:34:35;;;;;;;17.93;12.63;;;16.10;99.90;15.60;99599;;;;591680;239;24008;-81
2023/10/11 07:37:05;;;;;;;16.10;12.10;;;16.20;99.90;15.70;99607;;;;594141;237;24013;-81
2023/10/11 07:39:35;;;;;;;16.07;11.17;;;16.30;99.90;15.70;99593;;;;565935;245;23102;-80
2023/10/11 07:42:44;;;;;;;17.53;11.37;;;16.30;99.90;15.70;99599;;;;588276;243;24061;-80
2023/10/11 07:44:31;;;;;;;19.77;12.40;;;16.40;99.90;15.80;99595;;;;575693;247;24048;-80
2023/10/11 07:46:58;;;;;;;18.70;11.70;;;16.40;99.90;15.90;99587;;;;570096;246;24070;-81
2023/10/11 07:49:26;;;;;;;17.37;12.20;;;16.50;99.90;16.00;99574;;;;592813;238;23996;-81
2023/10/11 07:51:53;;;;;;;15.20;11.27;;;16.60;99.90;16.00;99572;;;;595184;238;24003;-82
2023/10/11 07:54:21;;;;;;;16.53;10.73;;;16.60;99.90;16.00;99570;;;;595088;238;24073;-80
2023/10/11 07:56:53;;;;;;;12.20;9.73;;;16.60;99.90;16.00;99565;;;;604139;237;24019;-80
2023/10/11 07:59:21;;;;;;;17.23;13.15;;;16.70;99.90;16.10;99573;;;;598331;237;34880;-83
2023/10/11 08:01:45;;;;;;;17.50;11.07;;;16.70;99.90;16.20;99556;;;;566559;245;24114;-81
2023/10/11 08:04:17;;;;;;;13.20;10.30;;;16.90;99.90;16.40;99564;;;;587131;242;24075;-81
2023/10/11 08:06:41;;;;;;;15.07;11.47;;;16.90;99.90;16.60;99562;;;;569973;248;24080;-82
2023/10/11 08:09:09;;;;;;;14.73;11.10;;;17.10;99.90;16.80;99561;;;;570288;248;24141;-80
2023/10/11 08:11:44;;;;;;;16.50;9.90;;;17.30;99.90;16.90;99569;;;;569797;247;24111;-81
2023/10/11 08:14:14;;;;;;;16.37;10.37;;;17.60;99.90;17.00;99564;;;;569237;247;24063;-81
2023/10/11 08:16:34;;;;;;;15.77;11.40;;;17.70;99.90;17.10;99568;;;;569185;248;24071;-80
2023/10/11 08:19:04;;;;;;;14.40;9.77;;;17.80;99.90;17.20;99557;;;;591684;239;23986;-81
2023/10/11 08:21:31;;;;;;;12.80;9.80;;;17.80;99.90;17.30;99562;;;;594356;237;24004;-81
2023/10/11 08:23:59;;;;;;;11.33;9.90;;;17.90;99.90;17.40;99556;;;;594244;239;24015;-82
2023/10/11 08:26:32;;;;;;;14.17;9.80;;;18.00;99.90;17.50;99554;;;;603488;238;23984;-82
2023/10/11 08:29:05;;;;;;;13.87;9.53;;;18.10;99.90;17.60;99556;;;;578204;244;23071;-79
2023/10/11 08:31:35;;;;;;;12.57;10.07;;;18.20;99.90;17.70;99563;;;;572497;245;24058;-79
2023/10/11 08:33:56;;;;;;;12.77;9.77;;;18.30;99.90;17.70;99561;;;;568940;247;23093;-80
2023/10/11 08:36:29;;;;;;;12.77;9.50;;;18.40;99.90;17.90;99549;;;;569191;247;24077;-81
2023/10/11 08:38:53;;;;;;;9.60;8.53;;;18.50;99.90;18.20;99550;;;;569477;247;24063;-81
2023/10/11 08:41:20;;;;;;;13.17;9.03;;;18.70;99.90;18.40;99546;;;;603641;237;24066;-82
2023/10/11 08:43:48;;;;;;;13.43;8.17;;;19.00;99.90;18.70;99549;;;;594598;239;24025;-82
2023/10/11 08:46:18;;;;;;;10.70;8.23;;;19.60;99.90;19.10;99539;;;;594475;239;25060;-81
2023/10/11 08:48:49;;;;;;;11.23;8.37;;;19.60;99.90;19.60;99532;;;;594531;239;23024;-81
2023/10/11 08:51:12;;;;;;;12.00;8.53;;;20.20;99.90;20.10;99518;;;;594313;239;24086;-80
2023/10/11 08:53:46;;;;;;;9.17;8.23;;;20.60;99.90;20.60;99508;;;;588552;243;24043;-80
2023/10/11 08:56:17;;;;;;;22.60;8.53;;;21.10;99.90;21.10;99510;;;;571561;247;24058;-81
2023/10/11 08:58:42;;;;;;;10.70;8.00;;;21.70;99.90;21.60;99514;;;;579481;247;23257;-80
2023/10/11 09:01:10;;;;;;;10.40;7.20;;;22.20;99.90;21.90;99518;;;;569717;248;24105;-80
2023/10/11 09:03:40;;;;;;;13.00;7.30;;;22.50;99.90;22.50;99517;;;;569498;247;24052;-81
2023/10/11 09:06:21;;;;;;;9.83;6.60;;;23.10;99.90;22.90;99515;;;;592232;238;23033;-81
2023/10/11 09:08:49;;;;;;;14.23;7.50;;;23.50;99.90;23.00;99506;;;;596997;238;24071;-81
2023/10/11 09:11:29;;;;;;;8.30;7.10;;;23.70;99.90;22.80;99508;;;;591958;238;24006;-82
2023/10/11 09:14:12;;;;;;;11.07;7.30;;;23.60;99.90;22.60;99507;;;;587315;244;24065;-80
2023/10/11 09:16:43;;;;;;;7.87;6.40;;;23.40;99.90;22.50;99502;;;;570844;248;24071;-80
2023/10/11 09:19:11;;;;;;;9.13;6.73;;;23.20;99.90;22.50;99486;;;;574380;244;24080;-80
2023/10/11 09:21:42;;;;;;;9.27;6.70;;;23.30;99.90;22.70;99499;;;;576270;248;24072;-81
2023/10/11 09:24:23;;;;;;;15.07;7.53;;;23.30;99.90;22.70;99493;;;;581082;247;24162;-80
2023/10/11 09:27:19;;;;;;;11.00;7.50;;;23.30;99.90;22.60;99483;;;;576199;248;24095;-80
2023/10/11 09:29:26;;;;;;;10.03;6.00;;;23.30;99.90;22.50;99484;;;;578263;246;24065;-79
2023/10/11 09:31:58;;;;;;;11.37;7.10;;;23.20;99.90;22.50;99476;;;;591528;239;23015;-80
2023/10/11 09:34:22;;;;;;;10.93;6.93;;;23.40;99.90;22.80;99470;;;;594522;237;24035;-81
2023/10/11 09:36:51;;;;;;;7.23;6.37;;;23.40;99.90;23.00;99474;;;;597685;239;23010;-80
2023/10/11 09:39:18;;;;;;;12.33;6.67;;;23.70;99.90;23.30;99482;;;;578182;244;24038;-80
2023/10/11 09:41:46;;;;;;;11.67;6.23;;;24.10;99.90;23.70;99484;;;;570497;248;24032;-81
2023/10/11 09:44:14;;;;;;;9.03;6.30;;;24.40;99.90;23.80;99482;;;;573938;244;23075;-80
2023/10/11 09:46:43;;;;;;;9.90;7.13;;;24.60;99.90;23.70;99472;;;;571841;248;23116;-81
2023/10/11 09:49:15;;;;;;;16.33;6.80;;;24.50;99.90;23.70;99475;;;;593962;239;24047;-80
2023/10/11 09:51:41;;;;;;;10.63;5.73;;;24.50;99.90;23.40;99459;;;;594149;236;23075;-80
2023/10/11 09:54:07;;;;;;;7.73;6.10;;;24.30;99.90;23.80;99461;;;;577526;244;24067;-80
2023/10/11 09:56:36;;;;;;;6.77;5.63;;;24.50;99.90;24.20;99468;;;;570028;248;23074;-81
2023/10/11 09:59:22;;;;;;;12.60;6.03;;;24.90;99.90;24.10;99456;;;;567996;248;23106;-81
2023/10/11 10:02:02;;;;;;;10.03;6.10;;;24.80;99.90;23.90;99473;;;;576451;244;24140;-82
2023/10/11 10:04:52;;;;;;;8.17;6.27;;;24.70;99.90;23.60;99459;;;;581227;245;23064;-81
2023/10/11 10:08:07;;;;;;;7.07;6.00;;;24.40;99.90;23.10;99459;;;;594796;238;24024;-81
2023/10/11 10:09:53;;;;;;;8.27;5.63;;;24.00;99.90;22.80;99452;;;;588815;238;24081;-81
2023/10/11 10:12:25;;;;;;;11.45;6.93;;;23.60;99.90;22.50;99463;;;;594834;238;34787;-81
2023/10/11 10:14:53;;;;;;;15.23;7.63;;;23.30;99.90;22.20;99471;;;;587746;238;24142;-82
2023/10/11 10:17:20;;;;;;;15.80;6.73;;;22.90;99.90;22.00;99483;;;;575139;249;23077;-81
2023/10/11 10:19:48;;;;;;;18.70;7.60;;;22.70;99.90;21.70;99487;;;;604618;237;24003;-80
2023/10/11 10:22:31;;;;;;;17.67;6.57;;;22.40;99.90;21.50;99484;;;;563312;247;24134;-81
2023/10/11 10:24:46;;;;;;;11.13;6.67;;;22.20;99.90;21.30;99481;;;;578719;244;24058;-80
2023/10/11 10:27:33;;;;;;;9.23;6.00;;;21.80;99.90;21.30;99477;;;;570605;248;24169;-80
2023/10/11 10:29:55;;;;;;;8.00;5.80;;;21.80;99.90;21.30;99486;;;;568534;248;24066;-80
2023/10/11 10:32:23;;;;;;;14.67;6.60;;;21.80;99.90;21.30;99470;;;;578834;248;24123;-80
2023/10/11 10:34:54;;;;;;;17.08;7.47;;;21.80;99.90;21.30;99471;;;;562640;249;35157;-81
2023/10/11 10:37:46;;;;;;;18.77;6.93;;;21.90;99.90;21.40;99466;;;;563294;240;24185;-81
2023/10/11 10:40:26;;;;;;;10.93;6.33;;;21.90;99.90;21.40;99454;;;;577461;244;23080;-80
2023/10/11 10:43:14;;;;;;;15.17;7.27;;;21.90;99.90;21.40;99459;;;;571394;247;24161;-80
2023/10/11 10:45:38;;;;;;;15.67;6.00;;;21.90;99.90;21.40;99450;;;;593505;239;24010;-81
2023/10/11 10:48:19;;;;;;;14.23;5.87;;;22.00;99.90;21.50;99448;;;;594078;239;23985;-81
2023/10/11 10:50:50;;;;;;;13.87;6.70;;;22.00;99.90;21.70;99445;;;;574200;249;24052;-80
2023/10/11 10:53:18;;;;;;;16.97;4.90;;;22.20;99.90;21.80;99442;;;;567509;241;24079;-81
2023/10/11 10:55:47;;;;;;;9.53;5.27;;;22.40;99.90;21.90;99447;;;;575247;248;24155;-81
2023/10/11 10:58:18;;;;;;;6.17;5.30;;;22.60;99.90;22.10;99450;;;;571793;247;24098;-80
2023/10/11 11:00:55;;;;;;;11.20;6.30;;;22.70;99.90;22.20;99451;;;;578107;244;24189;-80
2023/10/11 11:03:23;;;;;;;20.00;6.03;;;22.70;99.90;22.20;99449;;;;569641;248;24073;-81
2023/10/11 11:05:57;;;;;;;8.03;5.67;;;22.70;99.90;22.20;99463;;;;578749;244;23051;-81
2023/10/11 11:08:25;;;;;;;12.87;6.13;;;22.70;99.90;22.20;99472;;;;593399;239;23028;-82
2023/10/11 11:10:55;;;;;;;13.27;6.13;;;22.70;99.90;22.20;99461;;;;594322;239;24021;-81
2023/10/11 11:13:27;;;;;;;10.13;6.35;;;22.80;99.90;22.30;99458;;;;589283;239;34911;-80
2023/10/11 11:15:55;;;;;;;8.73;5.83;;;22.70;99.90;22.20;99459;;;;578407;244;23068;-81
2023/10/11 11:18:36;;;;;;;24.47;6.00;;;22.70;99.90;22.10;99459;;;;573265;244;23135;-81
2023/10/11 11:21:49;;;;;;;14.93;5.30;;;22.60;99.90;22.10;99470;;;;569633;247;24060;-81
2023/10/11 11:23:33;;;;;;;7.43;5.03;;;22.60;99.90;22.10;99461;;;;591138;238;24073;-81
2023/10/11 11:26:04;;;;;;;6.93;4.80;;;22.60;99.90;22.00;99443;;;;594557;237;24068;-81
2023/10/11 11:28:29;;;;;;;6.67;5.20;;;22.50;99.90;22.00;99444;;;;574002;244;24103;-79
2023/10/11 11:30:57;;;;;;;15.83;6.23;;;22.50;99.90;22.10;99446;;;;572466;244;24087;-79
2023/10/11 11:34:11;;;;;;;7.63;5.57;;;22.60;99.90;22.10;99441;;;;593747;238;24044;-81
2023/10/11 11:35:52;;;;;;;9.73;5.30;;;22.60;99.90;22.10;99451;;;;584832;238;24007;-81
2023/10/11 11:38:21;;;;;;;17.80;6.27;;;22.60;99.90;22.10;99462;;;;594150;238;24120;-80
2023/10/11 11:40:52;;;;;;;14.37;6.37;;;22.60;99.90;22.20;99452;;;;565958;249;24094;-81
2023/10/11 11:43:23;;;;;;;28.83;6.60;;;22.70;99.90;22.30;99457;;;;603663;237;24037;-81
2023/10/11 11:45:51;;;;;;;11.30;5.83;;;22.80;99.90;22.40;99454;;;;575615;248;23085;-80
2023/10/11 11:48:23;;;;;;;6.27;4.80;;;22.90;99.90;22.40;99454;;;;579038;247;24091;-80
2023/10/11 11:50:47;;;;;;;14.00;5.93;;;22.90;99.90;22.40;99455;;;;580765;246;24059;-80
2023/10/11 11:53:18;;;;;;;9.47;5.20;;;22.90;99.90;22.30;99447;;;;569120;247;24051;-81
2023/10/11 11:55:42;;;;;;;12.23;5.13;;;22.80;99.90;22.30;99442;;;;603617;237;24047;-81
2023/10/11 11:58:10;;;;;;;10.30;5.67;;;22.80;99.90;22.30;99437;;;;594582;239;24059;-80
2023/10/11 12:00:45;;;;;;;12.80;5.50;;;22.80;99.90;22.20;99454;;;;566104;249;24034;-81
2023/10/11 12:03:09;;;;;;;10.43;5.63;;;22.70;99.90;22.10;99439;;;;603679;237;23013;-80
2023/10/11 12:05:43;;;;;;;7.67;5.03;;;22.60;99.90;21.90;99440;;;;603429;236;24043;-81
2023/10/11 12:08:20;;;;;;;12.37;5.30;;;22.50;99.90;21.80;99455;;;;562788;248;23090;-80
2023/10/11 12:10:47;;;;;;;10.13;5.07;;;22.40;99.90;21.70;99441;;;;586383;244;24063;-80
2023/10/11 12:13:07;;;;;;;8.57;5.10;;;22.30;99.90;21.60;99429;;;;570085;248;24146;-79
2023/10/11 12:15:37;;;;;;;10.03;5.00;;;22.10;99.90;21.50;99431;;;;580751;247;24067;-78
2023/10/11 12:18:09;;;;;;;9.07;5.00;;;21.90;99.90;21.40;99430;;;;566794;249;24095;-80